Time;durP1;ratioP1;P1;durP2;ratioP2;P2;SDS_P1;SDS_P2;PMS_P1;PMS_P2;Temp;Humidity;BMP_temperature;BMP_pressure;BME280_temperature;BME280_humidity;BME280_pressure;Samples;Min_cycle;Max_cycle;Signal;HPM_P1;HPM_P2
2023/03/15 00:01:45;;;;;;;15.35;3.50;;;;;;;1.48;100.00;101270.06;5243730;28;20533;-75
2023/03/15 00:04:16;;;;;;;6.95;3.00;;;;;;;1.46;100.00;101267.53;5244334;28;20016;-75
2023/03/15 00:06:46;;;;;;;8.80;3.25;;;;;;;1.47;100.00;101277.16;5243163;28;20108;-75
2023/03/15 00:09:16;;;;;;;14.30;4.18;;;;;;;1.46;100.00;101279.91;5244204;28;20024;-75
2023/03/15 00:11:48;;;;;;;8.63;3.95;;;;;;;1.46;100.00;101280.75;5243782;28;20101;-74
2023/03/15 00:14:19;;;;;;;9.63;4.03;;;;;;;1.49;100.00;101290.25;5244450;28;20052;-74
2023/03/15 00:16:49;;;;;;;17.40;3.80;;;;;;;1.53;100.00;101297.91;5225556;28;20025;-75
2023/03/15 00:19:20;;;;;;;8.85;3.33;;;;;;;1.55;100.00;101301.28;5243812;28;20021;-75
2023/03/15 00:21:50;;;;;;;9.75;3.10;;;;;;;1.66;100.00;101305.94;5243882;28;20107;-74
2023/03/15 00:24:21;;;;;;;8.10;3.00;;;;;;;1.64;100.00;101305.16;5243729;28;20396;-75
2023/03/15 00:26:51;;;;;;;14.27;3.50;;;;;;;1.65;100.00;101328.00;5243683;28;20115;-75
2023/03/15 00:29:22;;;;;;;7.13;3.47;;;;;;;1.63;100.00;101345.78;5243808;28;20021;-75
2023/03/15 00:31:52;;;;;;;10.27;3.65;;;;;;;1.61;100.00;101334.47;5243350;28;20024;-75
2023/03/15 00:34:33;;;;;;;9.80;3.25;;;;;;;1.62;100.00;101343.25;5243707;28;20512;-75
2023/03/15 00:37:24;;;;;;;9.63;3.03;;;;;;;1.62;100.00;101346.72;5240571;28;20029;-75
2023/03/15 00:39:54;;;;;;;6.53;2.80;;;;;;;1.57;100.00;101335.59;5243624;28;20035;-75
2023/03/15 00:42:26;;;;;;;7.93;2.83;;;;;;;1.52;100.00;101338.53;5238511;28;20028;-75
2023/03/15 00:44:56;;;;;;;12.07;3.15;;;;;;;1.40;100.00;101338.44;5243772;28;20017;-75
2023/03/15 00:47:27;;;;;;;8.70;2.53;;;;;;;1.32;100.00;101335.44;5241841;28;20027;-75
2023/03/15 00:49:57;;;;;;;7.90;3.28;;;;;;;1.27;100.00;101330.41;5239354;28;20111;-74
2023/03/15 00:52:34;;;;;;;8.98;3.58;;;;;;;1.20;100.00;101332.56;5243695;28;20072;-75
2023/03/15 00:55:05;;;;;;;7.70;3.47;;;;;;;1.09;100.00;101326.25;5240999;28;20469;-75
2023/03/15 00:57:35;;;;;;;11.75;3.42;;;;;;;0.97;100.00;101322.56;5247312;28;20025;-74
2023/03/15 01:00:10;;;;;;;9.30;3.55;;;;;;;0.88;100.00;101323.13;5247347;28;20553;-75
2023/03/15 01:02:40;;;;;;;14.53;4.10;;;;;;;0.83;100.00;101322.56;5247889;28;20032;-75
2023/03/15 01:05:12;;;;;;;10.15;4.00;;;;;;;0.78;100.00;101322.81;5247222;28;20051;-75
2023/03/15 01:07:44;;;;;;;15.80;4.75;;;;;;;0.79;100.00;101332.44;5247095;28;20125;-75
2023/03/15 01:10:15;;;;;;;18.15;5.65;;;;;;;0.80;100.00;101323.56;5247223;28;20074;-75
2023/03/15 01:12:46;;;;;;;10.00;4.70;;;;;;;0.79;100.00;101321.88;5247557;28;20020;-75
2023/03/15 01:15:16;;;;;;;12.70;5.40;;;;;;;0.82;100.00;101324.34;5247192;28;20044;-74
2023/03/15 01:17:47;;;;;;;13.70;5.97;;;;;;;0.85;100.00;101315.38;5246307;28;20031;-75
2023/03/15 01:20:17;;;;;;;17.10;5.78;;;;;;;0.87;100.00;101321.44;5247202;28;20028;-75
2023/03/15 01:22:48;;;;;;;15.93;6.43;;;;;;;0.89;100.00;101316.91;5229283;28;20025;-73
2023/03/15 01:25:18;;;;;;;16.30;6.82;;;;;;;0.90;100.00;101313.31;5247374;28;20079;-74
2023/03/15 01:27:49;;;;;;;12.90;6.10;;;;;;;0.92;100.00;101328.13;5246377;28;20035;-75
2023/03/15 01:30:19;;;;;;;19.42;6.88;;;;;;;0.92;100.00;101325.50;5229132;28;20040;-75
2023/03/15 01:32:50;;;;;;;17.88;6.10;;;;;;;0.94;100.00;101328.03;5247097;28;20124;-75
2023/03/15 01:35:20;;;;;;;16.08;7.13;;;;;;;0.96;100.00;101336.72;5229041;28;20025;-74
2023/03/15 01:37:51;;;;;;;17.67;6.60;;;;;;;0.99;100.00;101334.72;5246586;28;20119;-74
2023/03/15 01:40:22;;;;;;;15.55;7.15;;;;;;;1.02;100.00;101334.56;5246752;28;20059;-75
2023/03/15 01:43:03;;;;;;;15.25;6.63;;;;;;;1.05;100.00;101338.78;5246554;28;20029;-75
2023/03/15 01:45:58;;;;;;;16.10;7.15;;;;;;;1.08;100.00;101337.78;5246927;28;20067;-75
2023/03/15 01:48:37;;;;;;;18.15;7.30;;;;;;;1.12;100.00;101340.13;5232414;28;20090;-74
2023/03/15 01:51:14;;;;;;;17.90;7.10;;;;;;;1.14;100.00;101340.88;5233341;28;20032;-75
2023/03/15 01:53:49;;;;;;;23.10;8.98;;;;;;;1.16;100.00;101344.31;5235015;28;20086;-74
2023/03/15 01:56:22;;;;;;;20.95;8.13;;;;;;;1.20;100.00;101344.94;5246561;28;20028;-74
2023/03/15 01:58:55;;;;;;;22.52;9.68;;;;;;;1.22;100.00;101349.19;5228442;28;20021;-75
2023/03/15 02:01:26;;;;;;;22.83;10.02;;;;;;;1.24;100.00;101347.31;5246234;28;20020;-75
2023/03/15 02:04:05;;;;;;;29.52;11.05;;;;;;;1.26;100.00;101342.78;5247264;28;20016;-74
2023/03/15 02:06:45;;;;;;;28.23;11.82;;;;;;;1.28;100.00;101335.59;5246850;28;20422;-74
2023/03/15 02:09:53;;;;;;;21.80;10.18;;;;;;;1.29;100.00;101350.50;5246692;28;20498;-74
2023/03/15 02:12:45;;;;;;;29.17;10.35;;;;;;;1.31;100.00;101350.44;5246868;28;20036;-73
2023/03/15 02:15:18;;;;;;;34.35;14.13;;;;;;;1.34;100.00;101357.31;5229208;28;20036;-73
2023/03/15 02:17:48;;;;;;;37.40;13.43;;;;;;;1.35;100.00;101351.94;5245816;28;20032;-73
2023/03/15 02:20:41;;;;;;;41.42;14.57;;;;;;;1.36;100.00;101352.81;5246766;28;20562;-75
2023/03/15 02:23:14;;;;;;;37.47;12.77;;;;;;;1.37;100.00;101355.34;5246399;28;20024;-74
2023/03/15 02:26:02;;;;;;;32.58;12.35;;;;;;;1.39;100.00;101347.31;5246724;28;20020;-74
2023/03/15 02:28:52;;;;;;;26.38;11.68;;;;;;;1.40;100.00;101352.50;5230699;28;20039;-74
2023/03/15 02:31:23;;;;;;;24.90;10.95;;;;;;;1.42;100.00;101352.41;5245962;28;20024;-75
2023/03/15 02:34:07;;;;;;;29.65;12.20;;;;;;;1.47;100.00;101366.19;5246270;28;20575;-74
2023/03/15 02:36:44;;;;;;;29.20;11.88;;;;;;;1.49;100.00;101359.84;5245595;28;20413;-75
2023/03/15 02:39:18;;;;;;;26.85;11.30;;;;;;;1.53;100.00;101363.16;5246679;28;20036;-75
2023/03/15 02:41:53;;;;;;;31.13;11.80;;;;;;;1.55;100.00;101358.63;5241509;28;20493;-74
2023/03/15 02:44:43;;;;;;;22.88;10.82;;;;;;;1.55;100.00;101370.03;5246117;28;20028;-73
2023/03/15 02:47:19;;;;;;;31.27;13.02;;;;;;;1.54;100.00;101364.88;5241845;28;20020;-75
2023/03/15 02:49:52;;;;;;;32.58;13.50;;;;;;;1.52;100.00;101364.13;5235748;28;20116;-75
2023/03/15 02:52:25;;;;;;;28.13;11.93;;;;;;;1.51;100.00;101359.78;5242705;28;20036;-74
2023/03/15 02:54:55;;;;;;;28.20;12.55;;;;;;;1.51;100.00;101354.50;5237820;28;20107;-75
2023/03/15 02:57:25;;;;;;;29.85;11.95;;;;;;;1.51;100.00;101365.06;5244909;28;20112;-75
2023/03/15 02:59:57;;;;;;;32.33;11.52;;;;;;;1.52;100.00;101372.06;5245608;28;20827;-75
2023/03/15 03:02:27;;;;;;;30.40;12.55;;;;;;;1.55;100.00;101372.69;5227921;28;20484;-74
2023/03/15 03:04:58;;;;;;;35.03;13.48;;;;;;;1.59;100.00;101385.75;5245686;28;20055;-75
2023/03/15 03:07:28;;;;;;;33.15;12.18;;;;;;;1.66;100.00;101387.91;5245166;28;20127;-74
2023/03/15 03:09:59;;;;;;;27.67;11.93;;;;;;;1.74;100.00;101403.28;5245003;28;20074;-74
2023/03/15 03:12:30;;;;;;;26.65;12.05;;;;;;;1.89;100.00;101410.28;5245512;28;20024;-75
2023/03/15 03:15:02;;;;;;;28.35;11.73;;;;;;;2.00;100.00;101423.66;5227110;28;20021;-74
2023/03/15 03:17:36;;;;;;;31.88;11.52;;;;;;;2.04;100.00;101427.81;5227524;28;20539;-75
2023/03/15 03:20:09;;;;;;;27.30;11.25;;;;;;;2.03;100.00;101426.13;5245262;28;20027;-75
2023/03/15 03:22:41;;;;;;;25.35;10.38;;;;;;;2.04;100.00;101422.53;5227264;28;20026;-75
2023/03/15 03:25:12;;;;;;;33.30;12.13;;;;;;;2.05;100.00;101424.22;5245225;28;20066;-75
2023/03/15 03:27:42;;;;;;;37.15;11.68;;;;;;;2.15;100.00;101431.59;5244706;28;20028;-75
2023/03/15 03:30:14;;;;;;;26.27;10.15;;;;;;;2.18;100.00;101436.69;5245309;28;20420;-74
2023/03/15 03:32:44;;;;;;;30.38;11.30;;;;;;;2.24;100.00;101444.25;5245359;28;20025;-75
2023/03/15 03:35:15;;;;;;;26.52;11.23;;;;;;;2.35;100.00;101452.34;5244893;28;20024;-75
2023/03/15 03:37:46;;;;;;;27.70;11.20;;;;;;;2.32;100.00;101455.19;5244443;28;20048;-75
2023/03/15 03:40:16;;;;;;;22.00;10.75;;;;;;;2.31;100.00;101456.16;5226802;28;20514;-75
2023/03/15 03:42:47;;;;;;;28.90;11.43;;;;;;;2.26;100.00;101456.44;5227283;28;20063;-75
2023/03/15 03:45:17;;;;;;;26.92;12.13;;;;;;;2.31;100.00;101462.31;5245004;28;20549;-73
2023/03/15 03:47:49;;;;;;;31.50;12.40;;;;;;;2.30;100.00;101459.72;5235487;28;20033;-75
2023/03/15 03:50:20;;;;;;;26.92;11.10;;;;;;;2.43;100.00;101460.66;5242830;28;20374;-74
2023/03/15 03:52:50;;;;;;;28.15;11.00;;;;;;;2.47;100.00;101464.81;5203737;28;20032;-75
2023/03/15 03:55:23;;;;;;;28.65;11.18;;;;;;;2.44;100.00;101464.16;5240128;28;20040;-75
2023/03/15 03:57:54;;;;;;;26.38;11.95;;;;;;;2.36;100.00;101466.44;5244009;28;20478;-74
2023/03/15 04:00:25;;;;;;;23.73;12.32;;;;;;;2.25;100.00;101470.59;5226402;28;20024;-75
2023/03/15 04:02:55;;;;;;;33.67;13.32;;;;;;;2.15;100.00;101473.94;5244844;28;20681;-75
2023/03/15 04:05:25;;;;;;;34.25;14.73;;;;;;;2.09;100.00;101475.19;5244917;28;20108;-75
2023/03/15 04:07:56;;;;;;;33.70;14.75;;;;;;;2.06;100.00;101478.88;5244167;28;20051;-74
2023/03/15 04:10:26;;;;;;;38.10;15.70;;;;;;;2.07;100.00;101479.72;5243848;28;20495;-75
2023/03/15 04:12:57;;;;;;;35.08;16.17;;;;;;;2.10;100.00;101491.91;5244432;28;20028;-75
2023/03/15 04:15:28;;;;;;;42.80;17.30;;;;;;;2.16;100.00;101495.03;5244568;28;20024;-75
2023/03/15 04:17:58;;;;;;;40.65;16.80;;;;;;;2.21;100.00;101502.66;5243607;28;20115;-74
2023/03/15 04:20:33;;;;;;;38.90;16.88;;;;;;;2.25;100.00;101496.25;5244520;28;20556;-75
2023/03/15 04:23:06;;;;;;;48.85;17.63;;;;;;;2.28;100.00;101502.19;5243794;28;20020;-75
2023/03/15 04:25:36;;;;;;;48.13;16.88;;;;;;;2.32;100.00;101503.72;5243390;28;20042;-74
2023/03/15 04:28:09;;;;;;;40.53;16.58;;;;;;;2.35;100.00;101505.28;5243846;28;20024;-74
2023/03/15 04:30:41;;;;;;;47.45;17.75;;;;;;;2.41;100.00;101517.28;5246196;28;20020;-74
2023/03/15 04:33:12;;;;;;;35.05;15.60;;;;;;;2.46;100.00;101515.22;5244847;28;20031;-75
2023/03/15 04:35:42;;;;;;;33.90;15.70;;;;;;;2.49;100.00;101515.03;5243867;28;20028;-75
2023/03/15 04:38:13;;;;;;;45.67;16.00;;;;;;;2.47;100.00;101520.44;5243997;28;20036;-75
2023/03/15 04:40:43;;;;;;;36.10;15.50;;;;;;;2.45;100.00;101518.81;5239210;28;20063;-74
2023/03/15 04:43:13;;;;;;;44.60;15.32;;;;;;;2.44;100.00;101525.06;5244315;28;20075;-75
2023/03/15 04:45:44;;;;;;;38.22;14.98;;;;;;;2.39;100.00;101520.06;5243980;28;20024;-75
2023/03/15 04:48:14;;;;;;;38.88;14.38;;;;;;;2.33;100.00;101523.94;5231320;28;20083;-74
2023/03/15 04:50:45;;;;;;;39.25;15.15;;;;;;;2.20;100.00;101530.94;5241832;28;20039;-75
2023/03/15 04:53:15;;;;;;;39.35;15.50;;;;;;;2.05;100.00;101526.59;5233989;28;20128;-75
2023/03/15 04:55:46;;;;;;;41.90;17.77;;;;;;;1.93;100.00;101530.84;5242816;28;20024;-75
2023/03/15 04:58:16;;;;;;;50.38;20.30;;;;;;;1.86;100.00;101531.31;5225649;28;20031;-74
2023/03/15 05:00:48;;;;;;;53.53;20.42;;;;;;;1.77;100.00;101535.38;5243678;28;20052;-75
2023/03/15 05:03:18;;;;;;;52.75;21.00;;;;;;;1.71;100.00;101533.13;5243817;28;20040;-75
2023/03/15 05:05:49;;;;;;;55.53;22.70;;;;;;;1.65;100.00;101536.13;5244160;28;20087;-75
2023/03/15 05:08:19;;;;;;;50.70;19.98;;;;;;;1.54;100.00;101531.47;5243423;28;20024;-75
2023/03/15 05:10:50;;;;;;;50.95;21.30;;;;;;;1.45;100.00;101537.28;5243828;28;20485;-74
2023/03/15 05:13:21;;;;;;;56.05;21.58;;;;;;;1.33;100.00;101549.47;5208648;28;20111;-75
2023/03/15 05:15:51;;;;;;;56.90;21.33;;;;;;;1.22;100.00;101541.31;5244008;28;20115;-75
2023/03/15 05:18:22;;;;;;;53.50;21.25;;;;;;;1.13;100.00;101553.25;5243035;28;20025;-75
2023/03/15 05:20:54;;;;;;;59.95;22.63;;;;;;;1.07;100.00;101555.41;5225842;28;20020;-75
2023/03/15 05:23:25;;;;;;;55.83;22.35;;;;;;;1.00;100.00;101553.13;5243096;28;20028;-75
2023/03/15 05:25:55;;;;;;;66.25;23.55;;;;;;;0.96;100.00;101563.94;5243763;28;20031;-74
2023/03/15 05:28:26;;;;;;;69.18;24.98;;;;;;;0.90;100.00;101564.28;5243531;28;20389;-75
2023/03/15 05:30:57;;;;;;;68.72;25.45;;;;;;;0.83;100.00;101581.41;5243691;28;20021;-75
2023/03/15 05:33:28;;;;;;;62.28;25.00;;;;;;;0.73;100.00;101571.34;5209654;28;20104;-75
2023/03/15 05:35:59;;;;;;;65.22;25.38;;;;;;;0.64;100.00;101571.88;5243249;28;20158;-75
2023/03/15 05:38:30;;;;;;;67.40;26.27;;;;;;;0.59;100.00;101573.91;5246987;28;20028;-75
2023/03/15 05:41:01;;;;;;;78.20;26.88;;;;;;;0.53;100.00;101571.63;5242749;28;20033;-74
2023/03/15 05:43:31;;;;;;;72.47;26.85;;;;;;;0.49;100.00;101572.72;5229762;28;20043;-75
2023/03/15 05:46:02;;;;;;;58.13;22.67;;;;;;;0.43;100.00;101583.63;5247203;28;20024;-76
2023/03/15 05:48:32;;;;;;;66.82;23.92;;;;;;;0.36;100.00;101580.47;5236047;28;20040;-76
2023/03/15 05:51:03;;;;;;;71.75;23.60;;;;;;;0.31;100.00;101587.78;5228961;28;20116;-75
2023/03/15 05:53:34;;;;;;;63.80;21.83;;;;;;;0.28;100.00;101584.44;5235653;28;20029;-75
2023/03/15 05:56:04;;;;;;;65.25;22.13;;;;;;;0.28;100.00;101584.44;5247115;28;20055;-75
2023/03/15 05:58:35;;;;;;;64.38;23.05;;;;;;;0.29;100.00;101586.13;5228669;28;20032;-75
2023/03/15 06:01:06;;;;;;;64.03;23.75;;;;;;;0.29;100.00;101599.34;5246331;28;20024;-75
2023/03/15 06:03:36;;;;;;;74.25;22.63;;;;;;;0.29;100.00;101599.34;5229099;28;20063;-75
2023/03/15 06:06:07;;;;;;;66.00;22.27;;;;;;;0.28;100.00;101609.03;5247111;28;20074;-76
2023/03/15 06:08:38;;;;;;;62.13;21.42;;;;;;;0.27;100.00;101599.41;5246489;28;20032;-75
2023/03/15 06:11:08;;;;;;;65.60;22.27;;;;;;;0.23;100.00;101606.66;5246995;28;20035;-75
2023/03/15 06:13:38;;;;;;;72.97;24.10;;;;;;;0.21;100.00;101612.94;5246399;28;20020;-76
2023/03/15 06:16:09;;;;;;;66.70;21.63;;;;;;;0.23;100.00;101613.72;5246723;28;20085;-76
2023/03/15 06:18:39;;;;;;;76.05;25.17;;;;;;;0.28;100.00;101611.69;5211806;28;20066;-76
2023/03/15 06:21:10;;;;;;;76.18;24.75;;;;;;;0.35;100.00;101625.41;5228651;28;20108;-76
2023/03/15 06:23:40;;;;;;;69.97;23.90;;;;;;;0.47;100.00;101630.88;5246741;28;20038;-76
2023/03/15 06:26:11;;;;;;;64.13;23.73;;;;;;;0.63;100.00;101635.34;5246421;28;20036;-76
2023/03/15 06:28:41;;;;;;;71.55;23.40;;;;;;;0.84;100.00;101643.88;5228360;28;20107;-76
2023/03/15 06:31:13;;;;;;;68.60;22.88;;;;;;;1.17;100.00;101649.94;5228572;28;20060;-76
2023/03/15 06:33:43;;;;;;;68.40;24.13;;;;;;;1.43;100.00;101658.19;5246838;28;20055;-76
2023/03/15 06:36:14;;;;;;;71.63;24.13;;;;;;;1.70;100.00;101655.72;5245771;28;20063;-76
2023/03/15 06:38:44;;;;;;;59.42;22.85;;;;;;;1.93;100.00;101655.22;5246048;28;20021;-76
2023/03/15 06:41:15;;;;;;;44.17;18.42;;;;;;;2.04;100.00;101655.44;5224179;28;20047;-77
2023/03/15 06:43:45;;;;;;;49.15;18.50;;;;;;;2.16;100.00;101660.94;5246224;28;20024;-76
2023/03/15 06:46:16;;;;;;;37.55;16.55;;;;;;;2.28;100.00;101662.88;5228471;28;20021;-76
2023/03/15 06:48:46;;;;;;;35.53;15.43;;;;;;;2.43;100.00;101656.63;5239459;28;20489;-77
2023/03/15 06:51:17;;;;;;;161.52;20.50;;;;;;;2.66;100.00;101663.16;5227802;28;20077;-76
2023/03/15 06:53:47;;;;;;;49.90;16.35;;;;;;;2.84;100.00;101662.00;5234306;28;20074;-77
2023/03/15 06:56:18;;;;;;;33.15;13.13;;;;;;;3.10;100.00;101670.94;5228100;28;20028;-77
2023/03/15 06:58:48;;;;;;;21.58;11.18;;;;;;;3.63;100.00;101677.22;5227558;28;20029;-76
2023/03/15 07:01:19;;;;;;;26.45;11.10;;;;;;;3.87;100.00;101682.72;5227378;28;20025;-75
2023/03/15 07:03:49;;;;;;;20.63;9.95;;;;;;;4.10;100.00;101685.63;5245625;28;20074;-77
2023/03/15 07:06:20;;;;;;;18.65;9.38;;;;;;;4.31;100.00;101691.28;5228275;28;20036;-78
2023/03/15 07:08:50;;;;;;;18.17;8.93;;;;;;;4.56;100.00;101688.63;5227570;28;20431;-79
2023/03/15 07:11:21;;;;;;;19.60;8.98;;;;;;;4.91;100.00;101691.44;5228273;28;20024;-79
2023/03/15 07:13:51;;;;;;;13.07;6.80;;;;;;;5.30;100.00;101697.53;5227949;28;20021;-77
2023/03/15 07:16:21;;;;;;;12.88;7.40;;;;;;;5.35;100.00;101707.84;5227315;28;20477;-78
2023/03/15 07:18:54;;;;;;;16.20;7.55;;;;;;;5.56;100.00;101700.94;5234929;28;20021;-76
2023/03/15 07:21:29;;;;;;;14.82;8.52;;;;;;;6.06;100.00;101706.16;5231322;28;20103;-76
2023/03/15 07:23:59;;;;;;;15.82;9.50;;;;;;;6.18;100.00;101715.91;5243626;28;20024;-76
2023/03/15 07:26:30;;;;;;;17.88;8.48;;;;;;;6.15;100.00;101716.13;5225509;28;20028;-76
2023/03/15 07:29:01;;;;;;;17.17;8.73;;;;;;;5.74;100.00;101720.03;5226435;28;20032;-76
2023/03/15 07:31:32;;;;;;;15.68;8.40;;;;;;;5.20;100.00;101721.28;5226206;28;20439;-77
2023/03/15 07:34:03;;;;;;;15.65;8.70;;;;;;;5.12;100.00;101729.00;5243882;28;20028;-76
2023/03/15 07:36:34;;;;;;;17.42;8.40;;;;;;;4.98;100.00;101733.59;5243023;28;20021;-76
2023/03/15 07:39:04;;;;;;;18.05;8.55;;;;;;;4.86;100.00;101730.81;5243134;28;20036;-76
2023/03/15 07:41:35;;;;;;;18.35;8.48;;;;;;;4.89;100.00;101738.59;5238213;28;20078;-76
2023/03/15 07:44:06;;;;;;;16.55;8.05;;;;;;;4.97;100.00;101746.03;5243546;28;20107;-77
2023/03/15 07:46:37;;;;;;;20.02;8.82;;;;;;;5.30;100.00;101756.06;5243088;28;20085;-77
2023/03/15 07:49:08;;;;;;;17.35;7.57;;;;;;;5.69;100.00;101757.66;5229275;28;20374;-77
2023/03/15 07:51:38;;;;;;;13.85;7.55;;;;;;;5.85;100.00;101762.69;5241813;28;20093;-77
2023/03/15 07:54:09;;;;;;;24.02;7.50;;;;;;;5.66;100.00;101762.34;5231390;28;20028;-77
2023/03/15 07:56:40;;;;;;;15.98;7.75;;;;;;;5.22;100.00;101774.41;5224892;28;20025;-77
2023/03/15 07:59:11;;;;;;;19.40;8.43;;;;;;;5.25;100.00;101774.16;5242915;28;20021;-76
2023/03/15 08:01:42;;;;;;;17.90;8.82;;;;;;;5.18;100.00;101776.44;5224576;28;20025;-77
2023/03/15 08:04:12;;;;;;;23.08;10.30;;;;;;;5.34;100.00;101783.31;5242762;28;20384;-77
2023/03/15 08:06:42;;;;;;;23.05;10.75;;;;;;;5.39;100.00;101789.16;5208162;28;20031;-77
2023/03/15 08:09:13;;;;;;;16.67;9.60;;;;;;;5.20;100.00;101790.47;5225269;28;20067;-77
2023/03/15 08:11:43;;;;;;;18.95;9.23;;;;;;;5.12;100.00;101789.28;5243066;28;20455;-77
2023/03/15 08:14:14;;;;;;;18.30;9.65;;;;;;;4.97;100.00;101804.53;5242594;28;20024;-77
2023/03/15 08:16:44;;;;;;;20.08;9.00;;;;;;;4.85;100.00;101810.69;5242131;28;20020;-77
2023/03/15 08:19:15;;;;;;;19.35;9.10;;;;;;;5.30;100.00;101803.97;5242903;28;20021;-76
2023/03/15 08:21:45;;;;;;;20.05;9.40;;;;;;;5.88;100.00;101802.44;5242889;28;20508;-76
2023/03/15 08:24:16;;;;;;;20.45;8.77;;;;;;;6.54;100.00;101807.34;5224815;28;20048;-76
2023/03/15 08:26:47;;;;;;;19.88;8.30;;;;;;;7.36;100.00;101814.25;5242429;28;20043;-76
2023/03/15 08:29:17;;;;;;;24.85;11.25;;;;;;;7.46;100.00;101812.53;5224952;28;20032;-77
2023/03/15 08:31:48;;;;;;;20.55;10.60;;;;;;;7.52;100.00;101814.72;5243263;28;20059;-76
2023/03/15 08:34:18;;;;;;;26.63;13.77;;;;;;;7.23;100.00;101819.72;5242939;28;20047;-76
2023/03/15 08:36:49;;;;;;;25.00;11.95;;;;;;;7.34;100.00;101823.34;5242715;28;20086;-76
2023/03/15 08:39:22;;;;;;;23.45;11.85;;;;;;;7.67;100.00;101817.97;5208283;28;20031;-76
2023/03/15 08:41:53;;;;;;;23.38;13.88;;;;;;;7.87;100.00;101812.84;5244636;28;20029;-76
2023/03/15 08:44:23;;;;;;;45.33;21.08;;;;;;;8.24;100.00;101827.56;5242364;28;20024;-76
2023/03/15 08:46:54;;;;;;;32.25;16.00;;;;;;;8.54;100.00;101826.84;5241993;28;20370;-76
2023/03/15 08:49:24;;;;;;;33.28;14.07;;;;;;;8.74;100.00;101822.50;5238127;28;20021;-76
2023/03/15 08:51:55;;;;;;;14.32;8.68;;;;;;;9.20;100.00;101826.56;5242054;28;20527;-74
2023/03/15 08:54:26;;;;;;;15.30;6.80;;;;;;;9.30;100.00;101827.44;5230903;28;20027;-75
2023/03/15 08:56:56;;;;;;;20.60;7.07;;;;;;;9.38;100.00;101826.75;5242044;28;20020;-74
2023/03/15 08:59:27;;;;;;;14.75;5.78;;;;;;;9.81;100.00;101834.53;5242683;28;20070;-74
2023/03/15 09:01:59;;;;;;;13.10;6.35;;;;;;;9.71;100.00;101838.19;5224548;28;20028;-75
2023/03/15 09:04:30;;;;;;;12.90;5.50;;;;;;;9.97;100.00;101835.84;5241869;28;20029;-75
2023/03/15 09:07:01;;;;;;;14.73;6.18;;;;;;;9.52;100.00;101836.28;5241790;28;20021;-75
2023/03/15 09:09:32;;;;;;;12.02;5.10;;;;;;;10.19;100.00;101842.78;5242219;28;20545;-74
2023/03/15 09:12:03;;;;;;;13.50;5.88;;;;;;;10.01;100.00;101856.03;5244379;28;20476;-74
2023/03/15 09:14:33;;;;;;;10.95;4.65;;;;;;;10.13;100.00;101847.72;5245967;28;20035;-74
2023/03/15 09:17:03;;;;;;;9.55;4.68;;;;;;;10.52;100.00;101850.44;5245546;28;20047;-74
2023/03/15 09:19:34;;;;;;;9.48;4.32;;;;;;;11.01;100.00;101845.03;5228288;28;20016;-74
2023/03/15 09:22:06;;;;;;;7.00;2.88;;;;;;;10.79;100.00;101840.81;5228742;28;20024;-74
2023/03/15 09:24:36;;;;;;;6.93;1.95;;;;;;;11.41;100.00;101844.78;5227962;28;20028;-74
2023/03/15 09:27:07;;;;;;;5.05;1.70;;;;;;;11.95;100.00;101844.94;5227646;28;20432;-74
2023/03/15 09:29:37;;;;;;;6.97;1.80;;;;;;;12.05;100.00;101834.97;5228335;28;20544;-74
2023/03/15 09:32:08;;;;;;;3.67;1.60;;;;;;;11.86;100.00;101835.97;5246686;28;20067;-74
2023/03/15 09:34:39;;;;;;;9.45;3.00;;;;;;;11.62;100.00;101833.78;5245751;28;20028;-74
2023/03/15 09:37:09;;;;;;;4.25;2.17;;;;;;;12.15;100.00;101831.25;5245562;28;20032;-74
2023/03/15 09:39:40;;;;;;;3.70;1.95;;;;;;;12.82;100.00;101833.50;5227484;28;20031;-74
2023/03/15 09:42:33;;;;;;;5.78;2.83;;;;;;;11.59;100.00;101845.66;5241690;28;20029;-74
2023/03/15 09:45:13;;;;;;;6.10;3.28;;;;;;;10.22;100.00;101840.66;5245779;28;20081;-74
2023/03/15 09:47:58;;;;;;;7.82;3.08;;;;;;;9.08;100.00;101854.38;5244103;28;20423;-74
2023/03/15 09:50:33;;;;;;;7.80;3.88;;;;;;;8.65;100.00;101851.84;5241182;28;20028;-74
2023/03/15 09:53:13;;;;;;;9.35;2.90;;;;;;;8.36;100.00;101848.91;5237058;28;20021;-74
2023/03/15 09:55:47;;;;;;;7.70;2.53;;;;;;;7.94;100.00;101851.47;5243514;28;20515;-74
2023/03/15 09:58:25;;;;;;;7.68;1.83;;;;;;;7.57;100.00;101849.06;5245317;28;20078;-74
2023/03/15 10:01:00;;;;;;;7.13;2.00;;;;;;;7.42;100.00;101848.44;5245477;28;20484;-74
2023/03/15 10:03:50;;;;;;;8.02;2.63;;;;;;;7.77;100.00;101850.97;5245239;28;20029;-74
2023/03/15 10:06:25;;;;;;;13.07;2.83;;;;;;;7.64;100.00;101846.78;5227380;28;20884;-74
2023/03/15 10:08:58;;;;;;;4.03;2.45;;;;;;;7.44;100.00;101854.53;5245179;28;20616;-74
2023/03/15 10:11:37;;;;;;;5.63;2.08;;;;;;;7.34;100.00;101850.06;5227268;28;20024;-74
2023/03/15 10:14:20;;;;;;;3.40;2.10;;;;;;;6.99;100.00;101853.66;5206810;28;20020;-74
2023/03/15 10:16:51;;;;;;;8.77;2.20;;;;;;;6.68;100.00;101863.16;5243222;28;20461;-74
2023/03/15 10:19:35;;;;;;;6.35;2.83;;;;;;;6.40;100.00;101867.88;5245212;28;20096;-74
2023/03/15 10:22:28;;;;;;;8.40;3.40;;;;;;;6.06;100.00;101861.50;5245035;28;20032;-74
2023/03/15 10:25:28;;;;;;;68.72;26.63;;;;;;;5.98;100.00;101877.22;5226837;28;20024;-74
2023/03/15 10:28:05;;;;;;;14.35;6.78;;;;;;;5.90;100.00;101887.53;5244593;28;20162;-74
2023/03/15 10:30:37;;;;;;;43.72;24.65;;;;;;;5.88;100.00;101879.66;5244852;28;20635;-74
2023/03/15 10:33:30;;;;;;;8.27;4.45;;;;;;;6.00;100.00;101888.59;5244931;28;20024;-74
2023/03/15 10:36:10;;;;;;;9.35;4.63;;;;;;;6.01;100.00;101887.63;5226298;28;20027;-74
2023/03/15 10:38:41;;;;;;;11.88;4.03;;;;;;;6.09;100.00;101887.09;5244940;28;20031;-74
2023/03/15 10:41:25;;;;;;;7.07;3.85;;;;;;;6.31;100.00;101887.22;5224944;28;20224;-74
2023/03/15 10:44:00;;;;;;;17.63;5.95;;;;;;;6.45;100.00;101883.53;5245387;28;20063;-76
2023/03/15 10:46:31;;;;;;;8.65;3.80;;;;;;;6.68;100.00;101890.66;5226382;28;20025;-75
2023/03/15 10:49:20;;;;;;;28.30;12.00;;;;;;;6.61;100.00;101893.88;5239799;28;20078;-75
2023/03/15 10:51:50;;;;;;;18.73;7.57;;;;;;;6.71;100.00;101901.09;5244071;28;20107;-76
2023/03/15 10:54:23;;;;;;;27.17;9.50;;;;;;;6.79;100.00;101905.84;5214872;28;20457;-75
2023/03/15 10:57:00;;;;;;;8.02;3.60;;;;;;;6.75;100.00;101904.38;5243832;28;20021;-75
2023/03/15 10:59:34;;;;;;;16.88;4.03;;;;;;;6.86;100.00;101901.75;5244487;28;20025;-75
2023/03/15 11:02:24;;;;;;;5.80;2.78;;;;;;;6.92;100.00;101903.09;5226342;28;20028;-74
2023/03/15 11:05:14;;;;;;;7.35;2.72;;;;;;;6.88;100.00;101906.97;5226029;28;20111;-74
2023/03/15 11:08:09;;;;;;;7.97;3.30;;;;;;;6.78;100.00;101920.16;5225724;28;20134;-74
2023/03/15 11:10:41;;;;;;;11.85;3.92;;;;;;;6.69;100.00;101926.19;5231516;28;20024;-74
2023/03/15 11:13:19;;;;;;;8.65;4.07;;;;;;;6.53;100.00;101925.63;5243748;28;20020;-75
2023/03/15 11:16:03;;;;;;;10.43;3.88;;;;;;;6.64;100.00;101931.00;5243898;28;20036;-75
2023/03/15 11:18:52;;;;;;;5.72;2.83;;;;;;;6.71;100.00;101926.91;5225553;28;20016;-74
2023/03/15 11:21:32;;;;;;;12.32;3.45;;;;;;;6.56;100.00;101936.03;5243577;28;20101;-74
2023/03/15 11:24:05;;;;;;;5.30;2.78;;;;;;;6.57;100.00;101935.91;5225362;28;20400;-74
2023/03/15 11:26:38;;;;;;;5.72;2.78;;;;;;;6.66;100.00;101939.72;5225520;28;20028;-74
2023/03/15 11:29:45;;;;;;;7.47;2.72;;;;;;;6.78;100.00;101940.63;5243919;28;20511;-74
2023/03/15 11:32:20;;;;;;;5.85;2.63;;;;;;;6.91;100.00;101934.25;5243170;28;20365;-75
2023/03/15 11:34:56;;;;;;;;;;;;;;;7.10;100.00;101935.53;5243474;28;20619;-75
2023/03/15 11:37:34;;;;;;;7.15;1.92;;;;;;;7.54;100.00;101929.44;5225008;28;19908;-75
2023/03/15 11:40:31;;;;;;;6.20;1.50;;;;;;;7.90;100.00;101930.16;5242573;28;20021;-75
2023/03/15 11:43:07;;;;;;;3.08;1.52;;;;;;;8.28;100.00;101929.72;5240305;28;20028;-73